East Roxbury, Vermont
Current Conditions -  °F | °C
As of 1:51 AM on Friday 28 Nov 2014 (Local Time) from KMPV Reporting Station
Overcast Overcast  
Wind Chill: 19°   Ceiling: 7500
Heat Index: 19°   Visibility: 7mi
Dew Point: 18°   Wind: 0mph
Humidity: 96%   Direction: NA
Pressure: 30.01"   Gusts: NA
Location:  43.9694°N, 72.6877°W
Report Text: KMPV 280651Z AUTO 00000KT 7SM FEW031 OVC075 M07/M08 A3001 RMK AO2 SLP182 T10721078
Loading
Personal Weather Stations






























Interactive Weather Map New forecast layout! Learn more

10-Day Weather Forecast

Advertisements
Track Severe Weather on mobile